Terminal Aerodrome Forecast
Issued by NWS Sterling, VA

Current Version | Previous Version | Graphics & Text | Print | Product List | Glossary On
Versions: 1 2 3 4 5 6 7 8 9 10 11 12 13 14 15 16 17 18 19 20 21 22 23 24 25 26
000
FTUS41 KLWX 161120
TAFIAD
TAF
KIAD 161120Z 1612/1718 00000KT P6SM OVC009
     FM161700 17004KT P6SM BKN035
     FM162100 11004KT P6SM OVC100
     FM170000 04004KT P6SM OVC060
     FM170500 34005KT P6SM OVC025
     FM170900 33010G18KT 1 1/2SM -SN OVC015
     FM171200 33010G18KT P6SM OVC025
     FM171500 33013G22KT P6SM OVC050=

USA.gov is the U.S. government's official web portal to all federal, state and local government web resources and services.